createdAt,value
2016-08-10T00:00:38.212Z,965.01
2016-08-10T00:01:38.215Z,965.01
2016-08-10T00:02:38.222Z,965
2016-08-10T00:03:38.235Z,964.99
2016-08-10T00:04:38.246Z,964.95
2016-08-10T00:05:38.243Z,964.97
2016-08-10T00:06:38.258Z,964.96
2016-08-10T00:07:38.264Z,964.96
2016-08-10T00:08:38.269Z,964.91
2016-08-10T00:09:38.284Z,964.89
2016-08-10T00:10:38.288Z,964.92
2016-08-10T00:11:38.307Z,964.93
2016-08-10T00:12:38.304Z,964.92
2016-08-10T00:13:38.309Z,964.9
2016-08-10T00:14:38.325Z,964.86
2016-08-10T00:15:38.333Z,964.83
2016-08-10T00:16:38.345Z,964.87
2016-08-10T00:17:38.350Z,964.88
2016-08-10T00:18:38.361Z,964.85
2016-08-10T00:20:38.367Z,964.83
2016-08-10T00:21:38.374Z,964.83
2016-08-10T00:22:38.389Z,964.84
2016-08-10T00:23:38.392Z,964.83
2016-08-10T00:24:38.400Z,964.82
2016-08-10T00:25:38.413Z,964.8
2016-08-10T00:26:38.416Z,964.79
2016-08-10T00:27:38.430Z,964.76
2016-08-10T00:28:38.438Z,964.82
2016-08-10T00:29:38.447Z,964.78
2016-08-10T00:30:38.454Z,964.79
2016-08-10T00:31:38.457Z,964.79
2016-08-10T00:32:38.464Z,964.78
2016-08-10T00:33:38.473Z,964.78
2016-08-10T00:34:38.480Z,964.74
2016-08-10T00:35:38.487Z,964.74
2016-08-10T00:36:38.504Z,964.74
2016-08-10T00:38:38.513Z,964.69
2016-08-10T00:39:38.518Z,964.69
2016-08-10T00:40:38.528Z,964.69
2016-08-10T00:41:38.542Z,964.73
2016-08-10T00:42:38.543Z,964.69
2016-08-10T00:43:38.559Z,964.72
2016-08-10T00:44:38.566Z,964.72
2016-08-10T00:45:38.573Z,964.73
2016-08-10T00:46:38.574Z,964.7
2016-08-10T00:47:38.589Z,964.71
2016-08-10T00:48:38.601Z,964.66
2016-08-10T00:49:38.607Z,964.64
2016-08-10T00:50:38.608Z,964.64
2016-08-10T00:51:38.622Z,964.61
2016-08-10T00:53:38.639Z,964.59
2016-08-10T00:54:38.641Z,964.55
2016-08-10T00:55:38.654Z,964.55
2016-08-10T00:56:38.655Z,964.51
2016-08-10T00:57:38.672Z,964.49
2016-08-10T00:58:38.672Z,964.49
2016-08-10T00:59:38.681Z,964.5
2016-08-10T01:00:38.688Z,964.49
2016-08-10T01:01:38.701Z,964.5
2016-08-10T01:02:38.717Z,964.53
2016-08-10T01:03:38.717Z,964.54
2016-08-10T01:04:38.718Z,964.55
2016-08-10T01:05:38.733Z,964.53
2016-08-10T01:06:38.741Z,964.52
2016-08-10T01:08:38.761Z,964.5
2016-08-10T01:09:38.760Z,964.5
2016-08-10T01:10:38.773Z,964.48
2016-08-10T01:11:38.784Z,964.45
2016-08-10T01:12:38.790Z,964.47
2016-08-10T01:13:38.799Z,964.47
2016-08-10T01:14:38.805Z,964.49
2016-08-10T01:15:38.809Z,964.51
2016-08-10T01:16:38.824Z,964.5
2016-08-10T01:17:38.822Z,964.55
2016-08-10T01:18:38.840Z,964.55
2016-08-10T01:19:38.840Z,964.6
2016-08-10T01:20:38.854Z,964.61
2016-08-10T01:21:38.856Z,964.67
2016-08-10T01:23:38.871Z,964.73
2016-08-10T01:24:38.888Z,964.71
2016-08-10T01:25:38.887Z,964.72
2016-08-10T01:26:38.897Z,964.66
2016-08-10T01:27:38.911Z,964.67
2016-08-10T01:28:38.914Z,964.64
2016-08-10T01:29:38.926Z,964.62
2016-08-10T01:30:38.930Z,964.59
2016-08-10T01:31:38.939Z,964.58
2016-08-10T01:32:38.942Z,964.53
2016-08-10T01:33:38.948Z,964.55
2016-08-10T01:34:38.959Z,964.54
2016-08-10T01:35:38.965Z,964.58
2016-08-10T01:36:38.980Z,964.54
2016-08-10T01:37:38.982Z,964.54
2016-08-10T01:38:38.993Z,964.5
2016-08-10T01:39:38.996Z,964.51
2016-08-10T01:40:39.011Z,964.54
2016-08-10T01:41:39.021Z,964.46
2016-08-10T01:42:39.022Z,964.48
2016-08-10T01:43:39.056Z,964.42
2016-08-10T01:44:39.042Z,964.44
2016-08-10T01:45:39.052Z,964.46
2016-08-10T01:46:39.056Z,964.46
2016-08-10T01:47:39.067Z,964.44
2016-08-10T01:48:39.069Z,964.46
2016-08-10T01:49:39.086Z,964.47
2016-08-10T01:50:39.086Z,964.45
2016-08-10T01:51:39.093Z,964.42
2016-08-10T01:52:39.102Z,964.43
2016-08-10T01:53:39.116Z,964.42
2016-08-10T01:54:39.123Z,964.37
2016-08-10T01:55:39.127Z,964.37
2016-08-10T01:56:39.141Z,964.34
2016-08-10T01:57:39.141Z,964.39
2016-08-10T01:58:39.150Z,964.36
2016-08-10T01:59:39.164Z,964.39
2016-08-10T02:00:39.174Z,964.42
2016-08-10T02:01:39.186Z,964.44
2016-08-10T02:02:39.181Z,964.42
2016-08-10T02:03:39.189Z,964.39
2016-08-10T02:04:39.206Z,964.35
2016-08-10T02:05:39.211Z,964.32
2016-08-10T02:06:39.219Z,964.31
2016-08-10T02:07:39.219Z,964.28
2016-08-10T02:08:39.238Z,964.25
2016-08-10T02:09:39.239Z,964.29
2016-08-10T02:10:39.248Z,964.3
2016-08-10T02:11:39.261Z,964.29
2016-08-10T02:12:39.267Z,964.31
2016-08-10T02:13:39.277Z,964.28
2016-08-10T02:14:39.275Z,964.27
2016-08-10T02:15:39.296Z,964.23
2016-08-10T02:16:39.290Z,964.19
2016-08-10T02:17:39.307Z,964.22
2016-08-10T02:18:39.415Z,964.21
2016-08-10T02:19:39.326Z,964.16
2016-08-10T02:20:39.332Z,964.14
2016-08-10T02:21:39.341Z,964.13
2016-08-10T02:22:39.348Z,964.11
2016-08-10T02:23:39.346Z,964.09
2016-08-10T02:24:39.354Z,964.08
2016-08-10T02:25:39.369Z,964.05
2016-08-10T02:26:39.375Z,964.06
2016-08-10T02:27:39.382Z,964.06
2016-08-10T02:28:39.399Z,964.05
2016-08-10T02:29:39.399Z,964.04
2016-08-10T02:30:39.404Z,964.01
2016-08-10T02:31:39.425Z,963.98
2016-08-10T02:32:39.423Z,963.96
2016-08-10T02:33:39.437Z,963.97
2016-08-10T02:34:39.436Z,963.94
2016-08-10T02:35:39.446Z,963.91
2016-08-10T02:36:39.460Z,963.91
2016-08-10T02:37:39.468Z,963.89
2016-08-10T02:38:39.471Z,963.9
2016-08-10T02:39:39.479Z,963.85
2016-08-10T02:40:39.487Z,963.82
2016-08-10T02:41:39.492Z,963.85
2016-08-10T02:42:39.507Z,963.88
2016-08-10T02:43:39.515Z,963.87
2016-08-10T02:44:39.526Z,963.87
2016-08-10T02:45:39.529Z,963.83
2016-08-10T02:46:39.540Z,963.85
2016-08-10T02:47:39.546Z,963.84
2016-08-10T02:48:39.549Z,963.88
2016-08-10T02:49:39.552Z,963.83
2016-08-10T02:50:39.566Z,963.86
2016-08-10T02:51:39.570Z,963.9
2016-08-10T02:52:39.580Z,963.9
2016-08-10T02:53:39.594Z,963.89
2016-08-10T02:54:39.597Z,963.94
2016-08-10T02:55:39.611Z,963.96
2016-08-10T02:56:39.615Z,963.93
2016-08-10T02:57:39.626Z,963.91
2016-08-10T02:58:39.632Z,963.92
2016-08-10T02:59:39.640Z,963.94
2016-08-10T03:00:39.642Z,963.97
2016-08-10T03:01:39.658Z,963.94
2016-08-10T03:02:39.679Z,963.95
2016-08-10T03:03:39.671Z,964
2016-08-10T03:04:39.675Z,963.95
2016-08-10T03:05:39.691Z,964.01
2016-08-10T03:06:39.689Z,963.98
2016-08-10T03:07:39.699Z,963.97
2016-08-10T03:08:39.713Z,963.96
2016-08-10T03:09:39.721Z,963.95
2016-08-10T03:10:39.723Z,963.94
2016-08-10T03:11:39.737Z,963.9
2016-08-10T03:12:39.740Z,963.88
2016-08-10T03:13:39.751Z,963.88
2016-08-10T03:14:39.754Z,963.88
2016-08-10T03:15:39.771Z,963.84
2016-08-10T03:16:39.777Z,963.82
2016-08-10T03:17:39.783Z,963.8
2016-08-10T03:18:39.796Z,963.79
2016-08-10T03:19:39.798Z,963.78
2016-08-10T03:20:39.809Z,963.78
2016-08-10T03:21:39.816Z,963.84
2016-08-10T03:22:39.823Z,963.89
2016-08-10T03:23:39.824Z,963.89
2016-08-10T03:24:39.837Z,963.88
2016-08-10T03:25:39.839Z,963.93
2016-08-10T03:26:39.845Z,963.86
2016-08-10T03:27:39.864Z,963.89
2016-08-10T03:28:39.868Z,963.91
2016-08-10T03:29:39.872Z,963.92
2016-08-10T03:30:39.888Z,963.93
2016-08-10T03:31:39.890Z,963.9
2016-08-10T03:32:39.894Z,963.89
2016-08-10T03:33:39.903Z,963.85
2016-08-10T03:34:39.918Z,963.85
2016-08-10T03:35:39.925Z,963.87
2016-08-10T03:36:39.925Z,963.88
2016-08-10T03:37:39.943Z,963.86
2016-08-10T03:38:39.942Z,963.87
2016-08-10T03:39:39.959Z,963.85
2016-08-10T03:40:39.963Z,963.85
2016-08-10T03:41:39.967Z,963.86
2016-08-10T03:42:39.987Z,963.85
2016-08-10T03:43:39.993Z,963.86
2016-08-10T03:44:39.998Z,963.82
2016-08-10T03:45:39.999Z,963.82
2016-08-10T03:46:40.013Z,963.86
2016-08-10T03:47:40.013Z,963.88
2016-08-10T03:48:40.022Z,963.92
2016-08-10T03:49:40.030Z,963.95
2016-08-10T03:50:40.039Z,963.95
2016-08-10T03:51:40.052Z,963.95
2016-08-10T03:52:40.070Z,963.99
2016-08-10T03:53:40.067Z,963.97
2016-08-10T03:54:40.068Z,963.96
2016-08-10T03:55:40.077Z,963.98
2016-08-10T03:56:40.093Z,964.06
2016-08-10T03:57:40.100Z,964.03
2016-08-10T03:58:40.100Z,964.06
2016-08-10T03:59:40.116Z,964.07
2016-08-10T04:00:40.118Z,964.1
2016-08-10T04:01:40.132Z,964.08
2016-08-10T04:02:40.137Z,964.12
2016-08-10T04:03:40.149Z,964.13
2016-08-10T04:04:40.156Z,964.13
2016-08-10T04:05:40.158Z,964.13
2016-08-10T04:06:40.166Z,964.2
2016-08-10T04:07:40.172Z,964.18
2016-08-10T04:08:40.181Z,964.17
2016-08-10T04:09:40.195Z,964.19
2016-08-10T04:10:40.201Z,964.17
2016-08-10T04:11:40.212Z,964.15
2016-08-10T04:12:40.210Z,964.17
2016-08-10T04:13:40.225Z,964.19
2016-08-10T04:14:40.235Z,964.21
2016-08-10T04:15:40.241Z,964.19
2016-08-10T04:16:40.255Z,964.18
2016-08-10T04:17:40.254Z,964.18
2016-08-10T04:18:40.266Z,964.15
2016-08-10T04:19:40.275Z,964.15
2016-08-10T04:20:40.284Z,964.17
2016-08-10T04:21:40.290Z,964.16
2016-08-10T04:22:40.298Z,964.15
2016-08-10T04:23:40.298Z,964.12
2016-08-10T04:24:40.315Z,964.1
2016-08-10T04:25:40.314Z,964.12
2016-08-10T04:26:40.325Z,964.13
2016-08-10T04:27:40.333Z,964.11
2016-08-10T04:28:40.348Z,964.11
2016-08-10T04:29:40.348Z,964.12
2016-08-10T04:30:40.354Z,964.16
2016-08-10T04:31:40.366Z,964.16
2016-08-10T04:32:40.378Z,964.2
2016-08-10T04:33:40.380Z,964.26
2016-08-10T04:34:40.387Z,964.32
2016-08-10T04:35:40.394Z,964.37
2016-08-10T04:36:40.410Z,964.38
2016-08-10T04:37:40.420Z,964.39
2016-08-10T04:38:40.424Z,964.42
2016-08-10T04:39:40.433Z,964.43
2016-08-10T04:40:40.443Z,964.42
2016-08-10T04:41:40.450Z,964.41
2016-08-10T04:42:40.450Z,964.38
2016-08-10T04:43:40.457Z,964.37
2016-08-10T04:44:40.477Z,964.42
2016-08-10T04:45:40.485Z,964.47
2016-08-10T04:46:40.485Z,964.48
2016-08-10T04:47:40.497Z,964.49
2016-08-10T04:48:40.499Z,964.49
2016-08-10T04:49:40.519Z,964.42
2016-08-10T04:50:40.527Z,964.38
2016-08-10T04:51:40.530Z,964.36
2016-08-10T04:52:40.530Z,964.35
2016-08-10T04:54:40.548Z,964.36
2016-08-10T04:55:40.557Z,964.39
2016-08-10T04:56:40.568Z,964.36
2016-08-10T04:57:40.574Z,964.38
2016-08-10T04:58:40.581Z,964.37
2016-08-10T04:59:40.592Z,964.39
2016-08-10T05:00:40.593Z,964.38
2016-08-10T05:01:40.605Z,964.38
2016-08-10T05:02:40.633Z,964.36
2016-08-10T05:03:40.643Z,964.39
2016-08-10T05:04:40.628Z,964.36
2016-08-10T05:05:40.628Z,964.36
2016-08-10T05:06:40.637Z,964.33
2016-08-10T05:07:40.645Z,964.37
2016-08-10T05:08:40.655Z,964.36
2016-08-10T05:09:40.664Z,964.38
2016-08-10T05:10:40.670Z,964.37
2016-08-10T05:11:40.676Z,964.42
2016-08-10T05:12:40.692Z,964.38
2016-08-10T05:13:40.700Z,964.36
2016-08-10T05:14:40.711Z,964.33
2016-08-10T05:15:40.729Z,964.36
2016-08-10T05:16:40.719Z,964.33
2016-08-10T05:17:40.728Z,964.34
2016-08-10T05:18:40.748Z,964.3
2016-08-10T05:19:40.754Z,964.32
2016-08-10T05:20:40.749Z,964.34
2016-08-10T05:21:40.787Z,964.34
2016-08-10T05:22:40.786Z,964.35
2016-08-10T05:24:40.800Z,964.35
2016-08-10T05:25:40.796Z,964.32
2016-08-10T05:26:40.809Z,964.33
2016-08-10T05:27:40.804Z,964.34
2016-08-10T05:28:40.828Z,964.34
2016-08-10T05:29:40.829Z,964.39
2016-08-10T05:30:40.831Z,964.43
2016-08-10T05:31:40.869Z,964.45
2016-08-10T05:32:40.851Z,964.46
2016-08-10T05:33:40.852Z,964.45
2016-08-10T05:34:40.865Z,964.43
2016-08-10T05:35:40.866Z,964.36
2016-08-10T05:36:40.874Z,964.36
2016-08-10T05:37:40.889Z,964.35
2016-08-10T05:38:40.904Z,964.33
2016-08-10T05:39:40.900Z,964.33
2016-08-10T05:40:40.913Z,964.35
2016-08-10T05:41:40.922Z,964.38
2016-08-10T05:42:40.923Z,964.37
2016-08-10T05:43:40.930Z,964.35
2016-08-10T05:44:40.945Z,964.38
2016-08-10T05:45:40.964Z,964.39
2016-08-10T05:46:40.971Z,964.46
2016-08-10T05:47:40.972Z,964.47
2016-08-10T05:48:40.978Z,964.42
2016-08-10T05:49:40.994Z,964.39
2016-08-10T05:50:40.999Z,964.33
2016-08-10T05:51:41.001Z,964.34
2016-08-10T05:52:41.002Z,964.33
2016-08-10T05:53:41.029Z,964.29
2016-08-10T05:54:41.034Z,964.28
2016-08-10T05:55:41.032Z,964.23
2016-08-10T05:56:41.033Z,964.23
2016-08-10T05:57:41.059Z,964.22
2016-08-10T05:58:41.050Z,964.17
2016-08-10T05:59:41.068Z,964.17
2016-08-10T06:00:41.071Z,964.19
2016-08-10T06:01:41.082Z,964.14
2016-08-10T06:02:41.085Z,964.16
2016-08-10T06:03:41.089Z,964.17
2016-08-10T06:04:41.104Z,964.16
2016-08-10T06:05:41.104Z,964.15
2016-08-10T06:06:41.114Z,964.18
2016-08-10T06:07:41.126Z,964.17
2016-08-10T06:08:41.135Z,964.18
2016-08-10T06:09:41.143Z,964.14
2016-08-10T06:10:41.151Z,964.18
2016-08-10T06:11:41.151Z,964.19
2016-08-10T06:12:41.159Z,964.24
2016-08-10T06:13:41.170Z,964.26
2016-08-10T06:14:41.177Z,964.29
2016-08-10T06:15:41.187Z,964.24
2016-08-10T06:16:41.192Z,964.26
2016-08-10T06:17:41.205Z,964.23
2016-08-10T06:18:41.215Z,964.26
2016-08-10T06:19:41.227Z,964.29
2016-08-10T06:20:41.223Z,964.35
2016-08-10T06:21:41.236Z,964.39
2016-08-10T06:22:41.244Z,964.42
2016-08-10T06:23:41.249Z,964.44
2016-08-10T06:24:41.261Z,964.42
2016-08-10T06:25:41.260Z,964.42
2016-08-10T06:26:41.271Z,964.43
2016-08-10T06:27:41.276Z,964.39
2016-08-10T06:28:41.292Z,964.41
2016-08-10T06:29:41.300Z,964.38
2016-08-10T06:30:41.307Z,964.37
2016-08-10T06:31:41.310Z,964.39
2016-08-10T06:32:41.325Z,964.38
2016-08-10T06:33:41.325Z,964.37
2016-08-10T06:34:41.344Z,964.34
2016-08-10T06:35:41.341Z,964.38
2016-08-10T06:36:41.358Z,964.36
2016-08-10T06:37:41.364Z,964.4
2016-08-10T06:38:41.365Z,964.35
2016-08-10T06:39:41.378Z,964.34
2016-08-10T06:40:41.390Z,964.37
2016-08-10T06:41:41.397Z,964.37
2016-08-10T06:42:41.403Z,964.34
2016-08-10T06:43:41.412Z,964.34
2016-08-10T06:44:41.421Z,964.37
2016-08-10T06:45:41.430Z,964.39
2016-08-10T06:46:41.437Z,964.35
2016-08-10T06:47:41.436Z,964.37
2016-08-10T06:48:41.452Z,964.41
2016-08-10T06:49:41.466Z,964.42
2016-08-10T06:50:41.467Z,964.46
2016-08-10T06:52:41.476Z,964.45
2016-08-10T06:53:41.492Z,964.49
2016-08-10T06:54:41.490Z,964.51
2016-08-10T06:55:41.501Z,964.53
2016-08-10T06:56:41.519Z,964.54
2016-08-10T06:57:41.523Z,964.57
2016-08-10T06:58:41.525Z,964.54
2016-08-10T06:59:41.540Z,964.52
2016-08-10T07:00:41.542Z,964.51
2016-08-10T07:01:41.550Z,964.37
2016-08-10T07:02:41.561Z,964.4
2016-08-10T07:03:41.571Z,964.33
2016-08-10T07:04:41.580Z,964.23
2016-08-10T07:05:41.581Z,964.23
2016-08-10T07:06:41.599Z,964.24
2016-08-10T07:07:41.605Z,964.19
2016-08-10T07:08:41.612Z,964.2
2016-08-10T07:09:41.621Z,964.22
2016-08-10T07:10:41.620Z,964.23
2016-08-10T07:11:41.635Z,964.24
2016-08-10T07:12:41.638Z,964.21
2016-08-10T07:13:41.645Z,964.23
2016-08-10T07:14:41.662Z,964.22
2016-08-10T07:15:41.668Z,964.22
2016-08-10T07:16:41.676Z,964.21
2016-08-10T07:17:41.683Z,964.19
2016-08-10T07:18:41.692Z,964.21
2016-08-10T07:19:41.702Z,964.21
2016-08-10T07:20:41.699Z,964.19
2016-08-10T07:21:41.710Z,964.26
2016-08-10T07:22:41.724Z,964.21
2016-08-10T07:23:41.732Z,964.26
2016-08-10T07:24:41.740Z,964.29
2016-08-10T07:25:41.741Z,964.3
2016-08-10T07:26:41.760Z,964.29
2016-08-10T07:27:41.754Z,964.3
2016-08-10T07:28:41.766Z,964.28
2016-08-10T07:29:41.774Z,964.26
2016-08-10T07:30:41.787Z,964.26
2016-08-10T07:31:41.797Z,964.27
2016-08-10T07:32:41.799Z,964.27
2016-08-10T07:33:41.805Z,964.22
2016-08-10T07:34:41.813Z,964.25
2016-08-10T07:35:41.820Z,964.27
2016-08-10T07:36:41.830Z,964.26
2016-08-10T07:37:41.841Z,964.2
2016-08-10T07:38:41.841Z,964.21
2016-08-10T07:39:41.854Z,964.19
2016-08-10T07:40:41.869Z,964.25
2016-08-10T07:41:41.871Z,964.26
2016-08-10T07:42:41.882Z,964.26
2016-08-10T07:43:41.885Z,964.3
2016-08-10T07:44:41.900Z,964.31
2016-08-10T07:45:41.898Z,964.28
2016-08-10T07:46:41.917Z,964.26
2016-08-10T07:47:41.917Z,964.23
2016-08-10T07:48:41.922Z,964.29
2016-08-10T07:49:41.937Z,964.26
2016-08-10T07:50:41.946Z,964.21
2016-08-10T07:51:41.957Z,964.16
2016-08-10T07:52:41.953Z,964.19
2016-08-10T07:53:41.968Z,964.18
2016-08-10T07:54:41.976Z,964.14
2016-08-10T07:55:41.979Z,964.19
2016-08-10T07:56:41.992Z,964.2
2016-08-10T07:57:41.994Z,964.17
2016-08-10T07:58:42.008Z,964.19
2016-08-10T07:59:42.015Z,964.18
2016-08-10T08:00:42.024Z,964.19
2016-08-10T08:01:42.026Z,964.24
2016-08-10T08:02:42.034Z,964.26
2016-08-10T08:03:42.053Z,964.28
2016-08-10T08:04:42.049Z,964.26
2016-08-10T08:05:42.064Z,964.28
2016-08-10T08:06:42.071Z,964.29
2016-08-10T08:07:42.072Z,964.27
2016-08-10T08:08:42.082Z,964.3
2016-08-10T08:09:42.100Z,964.3
2016-08-10T08:10:42.096Z,964.3
2016-08-10T08:11:42.111Z,964.34
2016-08-10T08:12:42.122Z,964.32
2016-08-10T08:13:42.119Z,964.34
2016-08-10T08:14:42.128Z,964.33
2016-08-10T08:15:42.136Z,964.32
2016-08-10T08:16:42.151Z,964.29
2016-08-10T08:17:42.149Z,964.33
2016-08-10T08:18:42.165Z,964.26
2016-08-10T08:19:42.175Z,964.28
2016-08-10T08:20:42.176Z,964.25
2016-08-10T08:21:42.188Z,964.29
2016-08-10T08:22:42.192Z,964.24
2016-08-10T08:23:42.199Z,964.27
2016-08-10T08:24:42.216Z,964.25
2016-08-10T08:25:43.209Z,964.24
2016-08-10T08:26:42.224Z,964.24
2016-08-10T08:27:42.232Z,964.28
2016-08-10T08:28:42.247Z,964.25
2016-08-10T08:29:42.248Z,964.25
2016-08-10T08:30:42.257Z,964.3
2016-08-10T08:31:42.273Z,964.26
2016-08-10T08:32:42.271Z,964.29
2016-08-10T08:33:42.281Z,964.29
2016-08-10T08:34:42.295Z,964.28
2016-08-10T08:35:42.293Z,964.29
2016-08-10T08:36:42.312Z,964.28
2016-08-10T08:37:42.321Z,964.25
2016-08-10T08:38:42.320Z,964.3
2016-08-10T08:39:42.330Z,964.28
2016-08-10T08:40:42.336Z,964.27
2016-08-10T08:41:42.350Z,964.26
2016-08-10T08:42:42.352Z,964.28
2016-08-10T08:43:42.363Z,964.3
2016-08-10T08:44:42.372Z,964.29
2016-08-10T08:45:42.381Z,964.33
2016-08-10T08:46:42.394Z,964.34
2016-08-10T08:47:42.406Z,964.37
2016-08-10T08:48:42.409Z,964.44
2016-08-10T08:49:42.410Z,964.49
2016-08-10T08:50:42.424Z,964.55
2016-08-10T08:51:42.435Z,964.57
2016-08-10T08:52:42.444Z,964.55
2016-08-10T08:53:42.445Z,964.57
2016-08-10T08:54:42.452Z,964.57
2016-08-10T08:55:42.468Z,964.61
2016-08-10T08:56:42.477Z,964.61
2016-08-10T08:57:42.480Z,964.66
2016-08-10T08:58:42.499Z,964.66
2016-08-10T08:59:42.493Z,964.66
2016-08-10T09:00:42.499Z,964.69
2016-08-10T09:01:42.515Z,964.68
2016-08-10T09:02:42.518Z,964.69
2016-08-10T09:03:42.533Z,964.7
2016-08-10T09:04:42.538Z,964.7
2016-08-10T09:05:42.538Z,964.67
2016-08-10T09:06:42.553Z,964.68
2016-08-10T09:07:42.559Z,964.7
2016-08-10T09:08:42.570Z,964.72
2016-08-10T09:09:42.572Z,964.72
2016-08-10T09:10:42.588Z,964.76
2016-08-10T09:11:42.596Z,964.71
2016-08-10T09:12:42.596Z,964.74
2016-08-10T09:13:42.605Z,964.73
2016-08-10T09:14:42.618Z,964.7
2016-08-10T09:15:42.626Z,964.74
2016-08-10T09:16:42.643Z,964.72
2016-08-10T09:17:42.643Z,964.71
2016-08-10T09:18:42.652Z,964.71
2016-08-10T09:19:42.653Z,964.7
2016-08-10T09:20:42.666Z,964.75
2016-08-10T09:21:42.669Z,964.77
2016-08-10T09:22:42.688Z,964.74
2016-08-10T09:23:42.692Z,964.79
2016-08-10T09:24:42.696Z,964.77
2016-08-10T09:25:42.702Z,964.75
2016-08-10T09:26:42.712Z,964.75
2016-08-10T09:27:42.726Z,964.73
2016-08-10T09:28:42.735Z,964.74
2016-08-10T09:29:42.744Z,964.78
2016-08-10T09:30:42.750Z,964.86
2016-08-10T09:31:42.750Z,964.83
2016-08-10T09:32:42.769Z,964.89
2016-08-10T09:33:42.773Z,964.88
2016-08-10T09:34:42.783Z,964.88
2016-08-10T09:35:42.792Z,964.89
2016-08-10T09:36:42.798Z,964.87
2016-08-10T09:37:42.807Z,964.88
2016-08-10T09:38:42.806Z,964.91
2016-08-10T09:39:42.824Z,964.91
2016-08-10T09:40:42.829Z,964.93
2016-08-10T09:41:42.831Z,964.9
2016-08-10T09:42:42.846Z,964.89
2016-08-10T09:43:42.848Z,964.88
2016-08-10T09:44:42.858Z,964.9
2016-08-10T09:45:42.867Z,964.87
2016-08-10T09:46:42.881Z,964.89
2016-08-10T09:47:42.882Z,964.88
2016-08-10T09:48:42.900Z,964.87
2016-08-10T09:49:42.903Z,964.86
2016-08-10T09:50:42.906Z,964.87
2016-08-10T09:51:42.925Z,964.91
2016-08-10T09:52:42.932Z,964.86
2016-08-10T09:53:42.932Z,964.89
2016-08-10T09:55:42.950Z,964.84
2016-08-10T09:56:42.957Z,964.86
2016-08-10T09:57:42.969Z,964.88
2016-08-10T09:58:42.975Z,964.82
2016-08-10T09:59:42.991Z,964.81
2016-08-10T10:00:42.989Z,964.8
2016-08-10T10:01:43.009Z,964.81
2016-08-10T10:02:43.015Z,964.81
2016-08-10T10:03:43.015Z,964.79
2016-08-10T10:04:43.027Z,964.81
2016-08-10T10:05:43.030Z,964.83
2016-08-10T10:06:43.045Z,964.76
2016-08-10T10:07:43.051Z,964.78
2016-08-10T10:08:43.055Z,964.75
2016-08-10T10:09:43.069Z,964.75
2016-08-10T10:10:43.079Z,964.72
2016-08-10T10:11:43.078Z,964.7
2016-08-10T10:12:43.086Z,964.67
2016-08-10T10:13:43.094Z,964.66
2016-08-10T10:14:43.118Z,964.63
2016-08-10T10:15:43.119Z,964.59
2016-08-10T10:16:43.117Z,964.61
2016-08-10T10:17:43.137Z,964.62
2016-08-10T10:18:43.141Z,964.59
2016-08-10T10:19:43.196Z,964.54
2016-08-10T10:20:43.157Z,964.55
2016-08-10T10:21:43.168Z,964.55
2016-08-10T10:22:43.176Z,964.55
2016-08-10T10:23:43.176Z,964.49
2016-08-10T10:24:43.187Z,964.49
2016-08-10T10:25:43.193Z,964.49
2016-08-10T10:26:43.207Z,964.51
2016-08-10T10:27:43.211Z,964.48
2016-08-10T10:28:43.219Z,964.48
2016-08-10T10:29:43.232Z,964.48
2016-08-10T10:30:43.236Z,964.48
2016-08-10T10:31:43.245Z,964.43
2016-08-10T10:32:43.260Z,964.44
2016-08-10T10:33:43.270Z,964.46
2016-08-10T10:34:43.271Z,964.44
2016-08-10T10:35:43.285Z,964.39
2016-08-10T10:36:43.289Z,964.33
2016-08-10T10:37:43.295Z,964.35
2016-08-10T10:38:43.304Z,964.35
2016-08-10T10:39:43.317Z,964.3
2016-08-10T10:40:43.325Z,964.34
2016-08-10T10:41:43.329Z,964.3
2016-08-10T10:42:43.349Z,964.32
2016-08-10T10:43:43.349Z,964.33
2016-08-10T10:44:43.360Z,964.29
2016-08-10T10:45:43.369Z,964.29
2016-08-10T10:46:43.371Z,964.28
2016-08-10T10:47:43.384Z,964.25
2016-08-10T10:48:43.386Z,964.25
2016-08-10T10:49:43.401Z,964.25
2016-08-10T10:50:43.410Z,964.28
2016-08-10T10:51:43.411Z,964.23
2016-08-10T10:52:43.419Z,964.24
2016-08-10T10:53:43.429Z,964.24
2016-08-10T10:54:43.435Z,964.24
2016-08-10T10:55:43.449Z,964.22
2016-08-10T10:56:43.460Z,964.21
2016-08-10T10:57:43.469Z,964.2
2016-08-10T10:58:43.492Z,964.21
2016-08-10T10:59:43.486Z,964.23
2016-08-10T11:00:43.491Z,964.24
2016-08-10T11:01:43.497Z,964.21
2016-08-10T11:02:43.504Z,964.21
2016-08-10T11:03:43.510Z,964.25
2016-08-10T11:04:43.524Z,964.21
2016-08-10T11:05:43.530Z,964.2
2016-08-10T11:06:43.545Z,964.24
2016-08-10T11:07:43.547Z,964.22
2016-08-10T11:08:43.555Z,964.21
2016-08-10T11:09:43.563Z,964.18
2016-08-10T11:10:43.584Z,964.24
2016-08-10T11:11:43.587Z,964.27
2016-08-10T11:12:43.607Z,964.24
2016-08-10T11:13:43.597Z,964.3
2016-08-10T11:14:43.614Z,964.23
2016-08-10T11:15:43.616Z,964.27
2016-08-10T11:16:43.631Z,964.26
2016-08-10T11:17:43.636Z,964.27
2016-08-10T11:18:43.640Z,964.29
2016-08-10T11:19:43.657Z,964.33
2016-08-10T11:20:43.670Z,964.36
2016-08-10T11:21:43.668Z,964.37
2016-08-10T11:22:43.682Z,964.34
2016-08-10T11:23:43.689Z,964.36
2016-08-10T11:24:43.706Z,964.36
2016-08-10T11:25:43.699Z,964.34
2016-08-10T11:26:43.717Z,964.35
2016-08-10T11:27:43.726Z,964.46
2016-08-10T11:28:43.729Z,964.6
2016-08-10T11:29:43.742Z,964.63
2016-08-10T11:30:43.750Z,964.64
2016-08-10T11:31:43.752Z,964.66
2016-08-10T11:32:43.764Z,964.69
2016-08-10T11:33:43.765Z,964.66
2016-08-10T11:34:43.778Z,964.69
2016-08-10T11:35:43.796Z,964.69
2016-08-10T11:36:43.790Z,964.62
2016-08-10T11:37:43.808Z,964.66
2016-08-10T11:38:43.803Z,964.63
2016-08-10T11:39:43.821Z,964.61
2016-08-10T11:40:43.830Z,964.64
2016-08-10T11:41:43.831Z,964.63
2016-08-10T11:42:43.840Z,964.64
2016-08-10T11:43:43.856Z,964.61
2016-08-10T11:44:43.858Z,964.58
2016-08-10T11:45:43.873Z,964.54
2016-08-10T11:46:43.881Z,964.55
2016-08-10T11:47:43.881Z,964.61
2016-08-10T11:48:43.898Z,964.56
2016-08-10T11:49:43.898Z,964.6
2016-08-10T11:50:43.915Z,964.62
2016-08-10T11:51:43.922Z,964.61
2016-08-10T11:52:43.927Z,964.61
2016-08-10T11:53:43.937Z,964.56
2016-08-10T11:54:43.945Z,964.6
2016-08-10T11:55:43.960Z,964.62
2016-08-10T11:56:43.965Z,964.55
2016-08-10T11:57:43.970Z,964.59
2016-08-10T11:58:43.984Z,964.55
2016-08-10T11:59:44.005Z,964.56
2016-08-10T12:00:44.000Z,964.56
2016-08-10T12:01:44.009Z,964.55
2016-08-10T12:02:44.016Z,964.53
2016-08-10T12:03:44.031Z,964.53
2016-08-10T12:04:44.026Z,964.5
2016-08-10T12:05:44.034Z,964.52
2016-08-10T12:06:44.042Z,964.48
2016-08-10T12:07:44.061Z,964.51
2016-08-10T12:08:44.067Z,964.48
2016-08-10T12:09:44.076Z,964.51
2016-08-10T12:10:44.085Z,964.58
2016-08-10T12:11:44.085Z,964.6
2016-08-10T12:12:44.103Z,964.6
2016-08-10T12:13:44.101Z,964.55
2016-08-10T12:14:44.117Z,964.61
2016-08-10T12:15:44.121Z,964.62
2016-08-10T12:16:44.129Z,964.59
2016-08-10T12:17:44.142Z,964.58
2016-08-10T12:18:44.144Z,964.57
2016-08-10T12:19:44.158Z,964.58
2016-08-10T12:20:44.158Z,964.57
2016-08-10T12:21:44.170Z,964.58
2016-08-10T12:22:44.177Z,964.55
2016-08-10T12:23:44.197Z,964.59
2016-08-10T12:24:44.198Z,964.6
2016-08-10T12:25:44.206Z,964.55
2016-08-10T12:26:44.220Z,964.57
2016-08-10T12:27:44.222Z,964.58
2016-08-10T12:28:44.229Z,964.55
2016-08-10T12:29:44.237Z,964.59
2016-08-10T12:30:44.251Z,964.56
2016-08-10T12:31:44.255Z,964.56
2016-08-10T12:32:44.264Z,964.63
2016-08-10T12:33:44.277Z,964.58
2016-08-10T12:34:44.291Z,964.55
2016-08-10T12:35:44.288Z,964.57
2016-08-10T12:36:44.302Z,964.54
2016-08-10T12:37:44.315Z,964.56
2016-08-10T12:38:44.313Z,964.53
2016-08-10T12:39:44.329Z,964.53